Wetterdaten: aktuell Dienstag, 05.05.2026 15:33
Datum Zeit Temp. A. Feuchte A. Luftdruck Regen Wind Richtung Richtung Sonnenschein Regendauer Taupunkt Windchill
05.05.2026 15:33 26,2 °C 32 % 1001,0 hPa 0,0 mm 23,0 km/h (4 Bft) SO 130 ° 5 min 0 min 8,2 °C 26,2 °C
05.05.2026 15:28 26,4 °C 33 % 1000,9 hPa 0,0 mm 11,1 km/h (2 Bft) NW 310 ° 5 min 0 min 8,8 °C 26,4 °C
05.05.2026 15:23 26,5 °C 34 % 1000,9 hPa 0,0 mm 13,1 km/h (3 Bft) S-SW 195 ° 5 min 0 min 9,3 °C 26,5 °C
05.05.2026 15:18 25,8 °C 35 % 1001,0 hPa 0,0 mm 22,3 km/h (4 Bft) S 175 ° 5 min 0 min 9,2 °C 25,8 °C
05.05.2026 15:13 25,3 °C 36 % 1001,1 hPa 0,0 mm 31,4 km/h (5 Bft) SW 230 ° 5 min 0 min 9,1 °C 25,3 °C
05.05.2026 15:08 25,8 °C 36 % 1001,0 hPa 0,0 mm 19,1 km/h (3 Bft) S-SW 200 ° 7 min 0 min 9,6 °C 25,8 °C
05.05.2026 15:03 26,0 °C 36 % 1001,0 hPa 0,0 mm 13,8 km/h (3 Bft) O 100 ° 4 min 0 min 9,8 °C 26,0 °C
05.05.2026 14:58 26,0 °C 35 % 1002,1 hPa 0,0 mm 15,7 km/h (3 Bft) SW 225 ° 6 min 0 min 9,3 °C 26,0 °C
05.05.2026 14:53 25,4 °C 39 % 1002,2 hPa 0,0 mm 23,3 km/h (4 Bft) SO 145 ° 5 min 0 min 10,4 °C 25,4 °C
05.05.2026 14:48 26,5 °C 39 % 1002,0 hPa 0,0 mm 13,6 km/h (3 Bft) N-NO 30 ° 5 min 0 min 11,4 °C 26,5 °C
05.05.2026 14:43 25,1 °C 39 % 1002,2 hPa 0,0 mm 27,7 km/h (5 Bft) O 90 ° 4 min 0 min 10,2 °C 25,1 °C
05.05.2026 14:38 25,2 °C 39 % 1002,2 hPa 0,0 mm 16,3 km/h (3 Bft) W-NW 285 ° 5 min 0 min 10,2 °C 25,2 °C
05.05.2026 14:33 25,1 °C 41 % 1002,2 hPa 0,0 mm 27,1 km/h (5 Bft) SO 130 ° 3 min 0 min 10,9 °C 25,1 °C
05.05.2026 14:28 24,9 °C 40 % 1003,3 hPa 0,0 mm 12,7 km/h (3 Bft) W 280 ° 8 min 0 min 10,4 °C 24,9 °C
05.05.2026 14:23 24,6 °C 42 % 1003,4 hPa 0,0 mm 32,5 km/h (5 Bft) O-NO 65 ° 2 min 0 min 10,8 °C 24,6 °C
05.05.2026 14:18 24,2 °C 42 % 1003,4 hPa 0,0 mm 34,1 km/h (5 Bft) S-SO 160 ° 7 min 0 min 10,5 °C 24,2 °C
05.05.2026 14:13 24,0 °C 42 % 1002,4 hPa 0,0 mm 44,0 km/h (6 Bft) S-SO 165 ° 1 min 0 min 10,3 °C 24,0 °C
05.05.2026 14:08 24,5 °C 42 % 1002,3 hPa 0,0 mm 22,0 km/h (4 Bft) S-SO 165 ° 5 min 0 min 10,7 °C 24,5 °C
05.05.2026 14:03 24,2 °C 42 % 1002,4 hPa 0,0 mm 31,7 km/h (5 Bft) S-SO 150 ° 3 min 0 min 10,5 °C 24,2 °C
05.05.2026 13:58 25,0 °C 42 % 1002,2 hPa 0,0 mm 33,5 km/h (5 Bft) NW 320 ° 5 min 0 min 11,2 °C 25,0 °C
05.05.2026 13:53 25,8 °C 41 % 1002,1 hPa 0,0 mm 8,7 km/h (2 Bft) O 80 ° 5 min 0 min 11,5 °C 25,8 °C
05.05.2026 13:48 24,8 °C 40 % 1002,3 hPa 0,0 mm 25,4 km/h (4 Bft) SO 130 ° 3 min 0 min 10,3 °C 24,8 °C
05.05.2026 13:43 25,1 °C 42 % 1002,2 hPa 0,0 mm 21,2 km/h (4 Bft) SO 135 ° 5 min 0 min 11,3 °C 25,1 °C
05.05.2026 13:38 24,8 °C 44 % 1002,3 hPa 0,0 mm 12,9 km/h (3 Bft) S 190 ° 5 min 0 min 11,7 °C 24,8 °C
05.05.2026 13:33 24,7 °C 47 % 1002,3 hPa 0,0 mm 25,0 km/h (4 Bft) S-SO 165 ° 5 min 0 min 12,6 °C 24,7 °C
05.05.2026 13:28 24,9 °C 46 % 1002,2 hPa 0,0 mm 30,4 km/h (5 Bft) S 170 ° 5 min 0 min 12,5 °C 24,9 °C
05.05.2026 13:23 25,0 °C 44 % 1002,2 hPa 0,0 mm 32,6 km/h (5 Bft) O-SO 110 ° 5 min 0 min 11,9 °C 25,0 °C
05.05.2026 13:18 24,5 °C 47 % 1002,3 hPa 0,0 mm 21,2 km/h (4 Bft) SO 140 ° 6 min 0 min 12,4 °C 24,5 °C
05.05.2026 13:13 24,0 °C 45 % 1003,5 hPa 0,0 mm 42,5 km/h (6 Bft) SO 135 ° 5 min 0 min 11,3 °C 24,0 °C
05.05.2026 13:08 24,7 °C 44 % 1003,3 hPa 0,0 mm 36,7 km/h (5 Bft) O-SO 115 ° 5 min 0 min 11,6 °C 24,7 °C
05.05.2026 13:03 24,8 °C 45 % 1003,3 hPa 0,0 mm 33,9 km/h (5 Bft) SO 125 ° 5 min 0 min 12,0 °C 24,8 °C
05.05.2026 12:58 24,6 °C 47 % 1003,4 hPa 0,0 mm 42,8 km/h (6 Bft) S-SO 160 ° 4 min 0 min 12,5 °C 24,6 °C
05.05.2026 12:53 24,2 °C 47 % 1003,4 hPa 0,0 mm 39,1 km/h (6 Bft) O-SO 115 ° 6 min 0 min 12,2 °C 24,2 °C
05.05.2026 12:48 23,4 °C 48 % 1003,6 hPa 0,0 mm 25,9 km/h (4 Bft) S-SO 160 ° 5 min 0 min 11,8 °C 23,4 °C
05.05.2026 12:43 23,7 °C 50 % 1003,5 hPa 0,0 mm 24,2 km/h (4 Bft) S-SO 160 ° 5 min 0 min 12,6 °C 23,7 °C
05.05.2026 12:38 23,6 °C 48 % 1003,5 hPa 0,0 mm 34,4 km/h (5 Bft) SO 135 ° 4 min 0 min 11,9 °C 23,6 °C
05.05.2026 12:33 23,7 °C 50 % 1003,5 hPa 0,0 mm 34,3 km/h (5 Bft) S-SO 150 ° 6 min 0 min 12,6 °C 23,7 °C
05.05.2026 12:28 24,1 °C 50 % 1004,5 hPa 0,0 mm 25,3 km/h (4 Bft) O-SO 120 ° 5 min 0 min 13,0 °C 24,1 °C
05.05.2026 12:23 23,2 °C 51 % 1004,7 hPa 0,0 mm 36,6 km/h (5 Bft) SO 135 ° 5 min 0 min 12,5 °C 23,2 °C
05.05.2026 12:18 23,4 °C 52 % 1004,6 hPa 0,0 mm 36,5 km/h (5 Bft) O-SO 120 ° 5 min 0 min 13,0 °C 23,4 °C
05.05.2026 12:13 23,9 °C 51 % 1003,5 hPa 0,0 mm 24,7 km/h (4 Bft) O 80 ° 5 min 0 min 13,1 °C 23,9 °C
05.05.2026 12:08 23,4 °C 51 % 1003,6 hPa 0,0 mm 32,5 km/h (5 Bft) SO 135 ° 6 min 0 min 12,7 °C 23,4 °C
05.05.2026 12:03 23,0 °C 52 % 1003,6 hPa 0,0 mm 27,7 km/h (5 Bft) W-SW 255 ° 4 min 0 min 12,6 °C 23,0 °C
05.05.2026 11:58 22,8 °C 52 % 1003,7 hPa 0,0 mm 35,5 km/h (5 Bft) S-SO 155 ° 6 min 0 min 12,4 °C 22,8 °C
05.05.2026 11:53 23,1 °C 54 % 1003,6 hPa 0,0 mm 13,3 km/h (3 Bft) O-SO 105 ° 5 min 0 min 13,3 °C 23,1 °C
05.05.2026 11:48 22,4 °C 55 % 1003,7 hPa 0,0 mm 39,8 km/h (6 Bft) O-SO 110 ° 5 min 0 min 12,9 °C 22,4 °C
05.05.2026 11:43 22,3 °C 54 % 1004,8 hPa 0,0 mm 41,3 km/h (6 Bft) S 170 ° 4 min 0 min 12,5 °C 22,3 °C
05.05.2026 11:38 22,4 °C 55 % 1004,8 hPa 0,0 mm 20,2 km/h (4 Bft) O-SO 105 ° 5 min 0 min 12,9 °C 22,4 °C
05.05.2026 11:33 22,1 °C 56 % 1004,9 hPa 0,0 mm 23,8 km/h (4 Bft) S-SO 160 ° 6 min 0 min 12,9 °C 22,1 °C
_ Min-Zeit 05:58 16:38 15:23 - 16:28 - - - - 20:18 05:58
Minimum _ 12,2 °C 29 % 1000,9 hPa - 0,0 km/h (0 Bft) - - - - 6,1 °C 12,2 °C
_ Max-Zeit 16:48 05:58 21:23 16:03 14:13 - - 10:43 16:03 11:53 16:48
Maximum _ 28,2 °C 80 % 1009,9 hPa 0,0 mm 44,0 km/h
S-SO (6 Bft)
- - 8 min 0 min 13,3 °C 28,2 °C
Durchschnitt _ 20,0 °C 55 % 1006,7 hPa #0,0 mm 7,5 km/h (2 Bft) NW - #8:27 h #0 min. 10,0 °C 20,0 °C